createdAt,value
2023-03-24T00:00:24.215Z,13.38
2023-03-24T00:01:23.073Z,13.32
2023-03-24T00:02:23.150Z,13.27
2023-03-24T00:03:23.166Z,13.24
2023-03-24T00:04:23.203Z,13.26
2023-03-24T00:05:23.965Z,13.26
2023-03-24T00:06:23.160Z,13.26
2023-03-24T00:07:25.074Z,13.29
2023-03-24T00:08:23.053Z,13.26
2023-03-24T00:09:23.033Z,13.26
2023-03-24T00:10:23.425Z,13.27
2023-03-24T00:11:22.969Z,13.32
2023-03-24T00:12:22.989Z,13.35
2023-03-24T00:13:22.978Z,13.38
2023-03-24T00:14:23.035Z,13.39
2023-03-24T00:15:22.998Z,13.39
2023-03-24T00:16:22.962Z,13.40
2023-03-24T00:17:22.924Z,13.42
2023-03-24T00:18:22.934Z,13.45
2023-03-24T00:19:22.912Z,13.45
2023-03-24T00:20:22.868Z,13.47
2023-03-24T00:21:22.851Z,13.54
2023-03-24T00:22:22.891Z,13.53
2023-03-24T00:23:22.867Z,13.53
2023-03-24T00:24:22.880Z,13.57
2023-03-24T00:25:22.827Z,13.57
2023-03-24T00:26:22.904Z,13.60
2023-03-24T00:27:22.816Z,13.58
2023-03-24T00:28:22.801Z,13.58
2023-03-24T00:29:22.785Z,13.60
2023-03-24T00:30:22.759Z,13.61
2023-03-24T00:31:22.778Z,13.58
2023-03-24T00:32:22.752Z,13.55
2023-03-24T00:33:22.763Z,13.57
2023-03-24T00:34:22.790Z,13.51
2023-03-24T00:35:22.762Z,13.54
2023-03-24T00:36:22.738Z,13.53
2023-03-24T00:37:22.694Z,13.57
2023-03-24T00:38:22.688Z,13.58
2023-03-24T00:39:22.729Z,13.54
2023-03-24T00:40:22.796Z,13.54
2023-03-24T00:41:22.670Z,13.53
2023-03-24T00:42:22.682Z,13.53
2023-03-24T00:43:22.660Z,13.53
2023-03-24T00:44:22.692Z,13.51
2023-03-24T00:45:23.668Z,13.53
2023-03-24T00:46:22.681Z,13.53
2023-03-24T00:47:22.625Z,13.53
2023-03-24T00:48:22.623Z,13.51
2023-03-24T00:49:22.588Z,13.51
2023-03-24T00:50:22.627Z,13.49
2023-03-24T00:51:22.581Z,13.51
2023-03-24T00:52:22.589Z,13.51
2023-03-24T00:53:22.555Z,13.46
2023-03-24T00:54:22.527Z,13.47
2023-03-24T00:55:22.566Z,13.51
2023-03-24T00:56:22.542Z,13.49
2023-03-24T00:57:22.592Z,13.51
2023-03-24T00:58:22.548Z,13.51
2023-03-24T00:59:22.489Z,13.54
2023-03-24T01:00:22.490Z,13.54
2023-03-24T01:01:22.503Z,13.54
2023-03-24T01:02:22.696Z,13.57
2023-03-24T01:03:22.477Z,13.58
2023-03-24T01:04:22.439Z,13.60
2023-03-24T01:05:22.421Z,13.60
2023-03-24T01:06:22.483Z,13.58
2023-03-24T01:07:22.395Z,13.64
2023-03-24T01:08:22.405Z,13.60
2023-03-24T01:09:22.376Z,13.54
2023-03-24T01:10:22.403Z,13.53
2023-03-24T01:11:22.366Z,13.47
2023-03-24T01:12:22.332Z,13.46
2023-03-24T01:13:22.348Z,13.43
2023-03-24T01:14:22.338Z,13.43
2023-03-24T01:15:22.330Z,13.42
2023-03-24T01:16:22.385Z,13.40
2023-03-24T01:17:22.321Z,13.40
2023-03-24T01:18:22.304Z,13.43
2023-03-24T01:19:22.278Z,13.46
2023-03-24T01:20:22.284Z,13.46
2023-03-24T01:21:22.314Z,13.47
2023-03-24T01:22:22.300Z,13.49
2023-03-24T01:23:22.258Z,13.49
2023-03-24T01:24:22.617Z,13.54
2023-03-24T01:25:22.299Z,13.53
2023-03-24T01:26:22.245Z,13.49
2023-03-24T01:27:22.183Z,13.49
2023-03-24T01:28:22.241Z,13.51
2023-03-24T01:29:22.184Z,13.46
2023-03-24T01:30:22.231Z,13.43
2023-03-24T01:31:22.181Z,13.40
2023-03-24T01:32:22.163Z,13.43
2023-03-24T01:33:22.197Z,13.43
2023-03-24T01:34:22.129Z,13.46
2023-03-24T01:35:22.167Z,13.42
2023-03-24T01:36:22.140Z,13.46
2023-03-24T01:37:22.130Z,13.43
2023-03-24T01:38:22.091Z,13.43
2023-03-24T01:39:22.107Z,13.43
2023-03-24T01:40:22.120Z,13.45
2023-03-24T01:41:22.103Z,13.47
2023-03-24T01:42:22.061Z,13.45
2023-03-24T01:43:22.044Z,13.40
2023-03-24T01:44:22.007Z,13.38
2023-03-24T01:45:22.037Z,13.36
2023-03-24T01:46:22.084Z,13.32
2023-03-24T01:47:22.021Z,13.29
2023-03-24T01:48:21.993Z,13.30
2023-03-24T01:49:21.982Z,13.30
2023-03-24T01:50:21.967Z,13.32
2023-03-24T01:51:21.934Z,13.29
2023-03-24T01:52:21.943Z,13.29
2023-03-24T01:53:21.922Z,13.27
2023-03-24T01:54:21.960Z,13.23
2023-03-24T01:55:21.917Z,13.21
2023-03-24T01:56:21.919Z,13.21
2023-03-24T01:57:21.903Z,13.21
2023-03-24T01:58:21.869Z,13.20
2023-03-24T01:59:21.878Z,13.20
2023-03-24T02:00:22.003Z,13.17
2023-03-24T02:01:21.961Z,13.11
2023-03-24T02:02:21.871Z,13.11
2023-03-24T02:03:21.838Z,13.09
2023-03-24T02:04:21.824Z,13.11
2023-03-24T02:05:21.811Z,13.08
2023-03-24T02:06:21.795Z,13.04
2023-03-24T02:07:21.809Z,13.08
2023-03-24T02:08:21.798Z,13.08
2023-03-24T02:09:21.843Z,13.09
2023-03-24T02:10:21.772Z,13.13
2023-03-24T02:11:21.754Z,13.14
2023-03-24T02:12:21.758Z,13.19
2023-03-24T02:13:21.759Z,13.21
2023-03-24T02:14:21.711Z,13.19
2023-03-24T02:15:21.759Z,13.19
2023-03-24T02:16:21.756Z,13.20
2023-03-24T02:17:21.728Z,13.20
2023-03-24T02:18:21.701Z,13.23
2023-03-24T02:19:22.993Z,13.20
2023-03-24T02:20:21.653Z,13.23
2023-03-24T02:21:21.645Z,13.21
2023-03-24T02:22:21.688Z,13.20
2023-03-24T02:23:21.614Z,13.20
2023-03-24T02:24:21.640Z,13.16
2023-03-24T02:25:21.643Z,13.11
2023-03-24T02:26:21.624Z,13.09
2023-03-24T02:27:21.610Z,13.08
2023-03-24T02:28:21.581Z,13.06
2023-03-24T02:29:21.564Z,13.06
2023-03-24T02:30:21.563Z,13.09
2023-03-24T02:31:21.616Z,13.11
2023-03-24T02:32:21.618Z,13.08
2023-03-24T02:33:21.514Z,13.08
2023-03-24T02:34:21.512Z,13.13
2023-03-24T02:35:21.500Z,13.08
2023-03-24T02:36:21.560Z,13.06
2023-03-24T02:37:21.533Z,13.08
2023-03-24T02:38:21.496Z,13.08
2023-03-24T02:39:21.521Z,13.09
2023-03-24T02:40:21.518Z,13.05
2023-03-24T02:41:21.437Z,13.05
2023-03-24T02:42:21.478Z,13.04
2023-03-24T02:43:21.544Z,13.05
2023-03-24T02:44:21.516Z,13.04
2023-03-24T02:45:21.414Z,13.02
2023-03-24T02:46:21.518Z,13.04
2023-03-24T02:47:21.419Z,13.04
2023-03-24T02:48:21.403Z,13.02
2023-03-24T02:49:21.383Z,13.02
2023-03-24T02:50:21.401Z,13.01
2023-03-24T02:51:21.330Z,13.02
2023-03-24T02:52:21.345Z,13.05
2023-03-24T02:53:21.435Z,13.01
2023-03-24T02:54:21.307Z,13.04
2023-03-24T02:55:21.318Z,13.02
2023-03-24T02:56:21.305Z,13.02
2023-03-24T02:57:21.304Z,13.04
2023-03-24T02:58:21.303Z,12.99
2023-03-24T02:59:21.271Z,13.05
2023-03-24T03:00:21.382Z,13.01
2023-03-24T03:01:21.262Z,13.02
2023-03-24T03:02:21.276Z,13.04
2023-03-24T03:03:21.237Z,13.06
2023-03-24T03:04:21.242Z,13.06
2023-03-24T03:05:21.216Z,13.13
2023-03-24T03:06:21.430Z,13.13
2023-03-24T03:07:21.185Z,13.16
2023-03-24T03:08:21.205Z,13.19
2023-03-24T03:09:21.143Z,13.19
2023-03-24T03:10:21.207Z,13.19
2023-03-24T03:11:21.163Z,13.21
2023-03-24T03:12:21.139Z,13.21
2023-03-24T03:13:21.120Z,13.23
2023-03-24T03:14:21.117Z,13.24
2023-03-24T03:15:21.127Z,13.23
2023-03-24T03:16:21.164Z,13.24
2023-03-24T03:17:21.096Z,13.24
2023-03-24T03:18:21.113Z,13.19
2023-03-24T03:19:21.057Z,13.20
2023-03-24T03:20:21.128Z,13.20
2023-03-24T03:21:21.055Z,13.23
2023-03-24T03:22:21.046Z,13.23
2023-03-24T03:23:21.014Z,13.23
2023-03-24T03:24:21.077Z,13.23
2023-03-24T03:25:21.001Z,13.21
2023-03-24T03:26:21.006Z,13.21
2023-03-24T03:27:20.969Z,13.20
2023-03-24T03:28:20.968Z,13.20
2023-03-24T03:29:20.938Z,13.23
2023-03-24T03:30:20.981Z,13.23
2023-03-24T03:31:21.034Z,13.23
2023-03-24T03:32:20.991Z,13.29
2023-03-24T03:33:20.939Z,13.26
2023-03-24T03:34:20.904Z,13.26
2023-03-24T03:35:20.946Z,13.24
2023-03-24T03:36:21.790Z,13.27
2023-03-24T03:37:20.943Z,13.29
2023-03-24T03:38:20.867Z,13.27
2023-03-24T03:39:20.860Z,13.29
2023-03-24T03:40:20.856Z,13.36
2023-03-24T03:41:20.829Z,13.38
2023-03-24T03:42:20.857Z,13.40
2023-03-24T03:43:20.830Z,13.46
2023-03-24T03:44:20.826Z,13.49
2023-03-24T03:45:20.915Z,13.51
2023-03-24T03:46:20.852Z,13.54
2023-03-24T03:47:20.817Z,13.54
2023-03-24T03:48:20.794Z,13.54
2023-03-24T03:49:20.757Z,13.58
2023-03-24T03:50:20.773Z,13.51
2023-03-24T03:51:20.783Z,13.53
2023-03-24T03:52:20.750Z,13.49
2023-03-24T03:53:20.739Z,13.55
2023-03-24T03:54:20.722Z,13.53
2023-03-24T03:55:20.706Z,13.58
2023-03-24T03:56:20.710Z,13.60
2023-03-24T03:57:20.680Z,13.55
2023-03-24T03:58:20.692Z,13.58
2023-03-24T03:59:20.654Z,13.60
2023-03-24T04:00:20.792Z,13.60
2023-03-24T04:01:20.636Z,13.61
2023-03-24T04:02:20.779Z,13.57
2023-03-24T04:03:21.659Z,13.55
2023-03-24T04:04:20.618Z,13.54
2023-03-24T04:05:21.109Z,13.55
2023-03-24T04:06:20.637Z,13.60
2023-03-24T04:07:20.622Z,13.58
2023-03-24T04:08:20.634Z,13.58
2023-03-24T04:09:20.581Z,13.60
2023-03-24T04:10:20.584Z,13.55
2023-03-24T04:11:20.539Z,13.54
2023-03-24T04:12:20.559Z,13.53
2023-03-24T04:13:20.534Z,13.49
2023-03-24T04:14:21.263Z,13.51
2023-03-24T04:15:20.518Z,13.51
2023-03-24T04:16:20.509Z,13.46
2023-03-24T04:17:20.763Z,13.47
2023-03-24T04:18:20.529Z,13.49
2023-03-24T04:19:20.465Z,13.46
2023-03-24T04:20:20.431Z,13.46
2023-03-24T04:21:20.458Z,13.42
2023-03-24T04:22:20.429Z,13.40
2023-03-24T04:23:20.442Z,13.40
2023-03-24T04:24:20.421Z,13.39
2023-03-24T04:25:20.405Z,13.35
2023-03-24T04:26:20.402Z,13.32
2023-03-24T04:27:20.483Z,13.32
2023-03-24T04:28:20.386Z,13.35
2023-03-24T04:29:20.349Z,13.32
2023-03-24T04:30:20.403Z,13.32
2023-03-24T04:31:20.376Z,13.32
2023-03-24T04:32:20.369Z,13.35
2023-03-24T04:33:20.323Z,13.36
2023-03-24T04:34:20.420Z,13.36
2023-03-24T04:35:20.343Z,13.38
2023-03-24T04:36:20.393Z,13.40
2023-03-24T04:37:20.303Z,13.40
2023-03-24T04:38:20.277Z,13.38
2023-03-24T04:39:20.245Z,13.39
2023-03-24T04:40:20.256Z,13.42
2023-03-24T04:41:20.271Z,13.42
2023-03-24T04:42:20.285Z,13.39
2023-03-24T04:43:20.220Z,13.36
2023-03-24T04:44:20.194Z,13.32
2023-03-24T04:45:20.255Z,13.32
2023-03-24T04:46:20.259Z,13.32
2023-03-24T04:47:20.171Z,13.32
2023-03-24T04:48:20.167Z,13.29
2023-03-24T04:49:20.144Z,13.35
2023-03-24T04:50:20.154Z,13.32
2023-03-24T04:51:20.138Z,13.36
2023-03-24T04:52:20.102Z,13.40
2023-03-24T04:53:20.102Z,13.38
2023-03-24T04:54:20.110Z,13.39
2023-03-24T04:55:20.158Z,13.42
2023-03-24T04:56:20.086Z,13.45
2023-03-24T04:57:20.082Z,13.42
2023-03-24T04:58:20.073Z,13.43
2023-03-24T04:59:20.679Z,13.39
2023-03-24T05:00:20.061Z,13.36
2023-03-24T05:01:20.017Z,13.38
2023-03-24T05:02:21.669Z,13.35
2023-03-24T05:03:20.039Z,13.38
2023-03-24T05:04:19.978Z,13.36
2023-03-24T05:05:19.925Z,13.32
2023-03-24T05:06:19.954Z,13.35
2023-03-24T05:07:19.917Z,13.30
2023-03-24T05:08:19.930Z,13.30
2023-03-24T05:09:19.937Z,13.27
2023-03-24T05:10:21.910Z,13.23
2023-03-24T05:11:19.861Z,13.24
2023-03-24T05:12:19.896Z,13.24
2023-03-24T05:13:19.873Z,13.26
2023-03-24T05:14:19.853Z,13.29
2023-03-24T05:15:19.841Z,13.20
2023-03-24T05:16:19.833Z,13.21
2023-03-24T05:17:19.794Z,13.16
2023-03-24T05:18:19.828Z,13.16
2023-03-24T05:19:19.824Z,13.16
2023-03-24T05:20:19.795Z,13.11
2023-03-24T05:21:19.757Z,13.11
2023-03-24T05:22:19.822Z,13.13
2023-03-24T05:23:19.908Z,13.13
2023-03-24T05:24:19.726Z,13.14
2023-03-24T05:25:19.731Z,13.19
2023-03-24T05:26:19.726Z,13.19
2023-03-24T05:27:19.699Z,13.19
2023-03-24T05:28:19.753Z,13.20
2023-03-24T05:29:19.683Z,13.19
2023-03-24T05:30:19.704Z,13.20
2023-03-24T05:31:19.717Z,13.20
2023-03-24T05:32:19.650Z,13.20
2023-03-24T05:33:19.663Z,13.23
2023-03-24T05:34:19.711Z,13.23
2023-03-24T05:35:19.705Z,13.26
2023-03-24T05:36:19.759Z,13.29
2023-03-24T05:37:19.624Z,13.32
2023-03-24T05:38:19.613Z,13.30
2023-03-24T05:39:19.650Z,13.35
2023-03-24T05:40:19.620Z,13.39
2023-03-24T05:41:19.823Z,13.40
2023-03-24T05:42:19.670Z,13.40
2023-03-24T05:43:19.556Z,13.43
2023-03-24T05:44:19.585Z,13.45
2023-03-24T05:45:19.608Z,13.46
2023-03-24T05:46:19.645Z,13.51
2023-03-24T05:47:19.535Z,13.49
2023-03-24T05:48:19.704Z,13.53
2023-03-24T05:49:19.639Z,13.57
2023-03-24T05:50:19.512Z,13.58
2023-03-24T05:51:19.459Z,13.63
2023-03-24T05:52:19.439Z,13.60
2023-03-24T05:53:19.444Z,13.61
2023-03-24T05:54:19.467Z,13.65
2023-03-24T05:55:19.422Z,13.65
2023-03-24T05:56:19.417Z,13.65
2023-03-24T05:57:19.478Z,13.71
2023-03-24T05:58:19.380Z,13.73
2023-03-24T05:59:19.412Z,13.67
2023-03-24T06:00:19.372Z,13.65
2023-03-24T06:01:19.415Z,13.72
2023-03-24T06:02:19.396Z,13.72
2023-03-24T06:03:19.474Z,13.71
2023-03-24T06:04:19.733Z,13.73
2023-03-24T06:05:19.327Z,13.78
2023-03-24T06:06:19.305Z,13.79
2023-03-24T06:07:19.379Z,13.82
2023-03-24T06:08:19.302Z,13.85
2023-03-24T06:09:19.401Z,13.83
2023-03-24T06:10:19.288Z,13.88
2023-03-24T06:11:19.264Z,13.86
2023-03-24T06:12:19.294Z,13.88
2023-03-24T06:13:19.250Z,13.91
2023-03-24T06:14:19.305Z,13.91
2023-03-24T06:15:19.262Z,13.93
2023-03-24T06:16:19.344Z,13.96
2023-03-24T06:17:19.215Z,13.96
2023-03-24T06:18:19.246Z,13.97
2023-03-24T06:19:19.856Z,14.01
2023-03-24T06:20:19.195Z,14.01
2023-03-24T06:21:19.216Z,14.01
2023-03-24T06:22:19.182Z,14.00
2023-03-24T06:23:19.180Z,14.01
2023-03-24T06:24:19.123Z,14.04
2023-03-24T06:25:19.202Z,14.01
2023-03-24T06:26:19.120Z,14.04
2023-03-24T06:27:19.118Z,14.03
2023-03-24T06:28:19.096Z,14.03
2023-03-24T06:29:19.129Z,14.03
2023-03-24T06:30:19.098Z,14.04
2023-03-24T06:31:19.211Z,14.05
2023-03-24T06:32:19.046Z,14.03
2023-03-24T06:33:19.033Z,14.04
2023-03-24T06:34:19.047Z,14.03
2023-03-24T06:35:19.033Z,14.03
2023-03-24T06:36:19.015Z,14.03
2023-03-24T06:37:19.024Z,14.04
2023-03-24T06:38:19.057Z,14.04
2023-03-24T06:39:18.997Z,14.01
2023-03-24T06:40:19.070Z,14.08
2023-03-24T06:41:19.153Z,14.08
2023-03-24T06:42:18.951Z,14.09
2023-03-24T06:43:19.022Z,14.09
2023-03-24T06:44:18.965Z,14.11
2023-03-24T06:45:18.983Z,14.12
2023-03-24T06:46:18.968Z,14.13
2023-03-24T06:47:18.957Z,14.12
2023-03-24T06:48:18.974Z,14.15
2023-03-24T06:49:18.929Z,14.16
2023-03-24T06:50:18.854Z,14.16
2023-03-24T06:51:18.881Z,14.16
2023-03-24T06:52:18.900Z,14.15
2023-03-24T06:53:18.827Z,14.15
2023-03-24T06:54:18.835Z,14.16
2023-03-24T06:55:18.916Z,14.18
2023-03-24T06:56:18.793Z,14.18
2023-03-24T06:57:18.864Z,14.22
2023-03-24T06:58:18.820Z,14.23
2023-03-24T06:59:18.833Z,14.22
2023-03-24T07:00:18.776Z,14.23
2023-03-24T07:01:18.788Z,14.31
2023-03-24T07:02:18.759Z,14.30
2023-03-24T07:03:18.859Z,14.34
2023-03-24T07:04:18.738Z,14.33
2023-03-24T07:05:18.745Z,14.36
2023-03-24T07:06:18.762Z,14.34
2023-03-24T07:07:57.082Z,14.36
2023-03-24T07:09:18.705Z,14.34
2023-03-24T07:10:18.657Z,14.34
2023-03-24T07:11:18.764Z,14.34
2023-03-24T07:12:18.717Z,14.33
2023-03-24T07:13:18.735Z,14.31
2023-03-24T07:14:19.576Z,14.30
2023-03-24T07:15:18.622Z,14.31
2023-03-24T07:16:18.654Z,14.27
2023-03-24T07:17:18.618Z,14.27
2023-03-24T07:18:18.729Z,14.26
2023-03-24T07:19:18.744Z,14.23
2023-03-24T07:20:18.567Z,14.26
2023-03-24T07:21:18.560Z,14.28
2023-03-24T07:22:18.572Z,14.26
2023-03-24T07:23:18.567Z,14.26
2023-03-24T07:24:18.537Z,14.26
2023-03-24T07:25:18.562Z,14.26
2023-03-24T07:26:18.555Z,14.27
2023-03-24T07:27:18.544Z,14.30
2023-03-24T07:28:18.613Z,14.23
2023-03-24T07:29:18.466Z,14.23
2023-03-24T07:30:24.205Z,14.26
2023-03-24T07:31:18.575Z,14.22
2023-03-24T07:32:18.437Z,14.19
2023-03-24T07:33:18.432Z,14.19
2023-03-24T07:34:18.489Z,14.15
2023-03-24T07:35:18.455Z,14.12
2023-03-24T07:36:18.483Z,14.12
2023-03-24T07:37:18.450Z,14.09
2023-03-24T07:38:18.415Z,14.09
2023-03-24T07:39:18.431Z,14.04
2023-03-24T07:40:18.381Z,14.03
2023-03-24T07:41:18.417Z,14.01
2023-03-24T07:42:18.340Z,13.97
2023-03-24T07:43:18.403Z,13.97
2023-03-24T07:44:18.323Z,13.97
2023-03-24T07:45:18.345Z,13.93
2023-03-24T07:46:18.433Z,13.96
2023-03-24T07:47:18.294Z,13.93
2023-03-24T07:48:18.313Z,13.90
2023-03-24T07:49:19.815Z,13.80
2023-03-24T07:50:19.197Z,13.79
2023-03-24T07:51:18.306Z,13.82
2023-03-24T07:52:18.286Z,13.75
2023-03-24T07:53:18.229Z,13.73
2023-03-24T07:54:18.227Z,13.75
2023-03-24T07:55:19.241Z,13.76
2023-03-24T07:56:18.207Z,13.82
2023-03-24T07:57:18.325Z,13.79
2023-03-24T07:58:18.212Z,13.80
2023-03-24T07:59:18.451Z,13.82
2023-03-24T08:00:18.301Z,13.82
2023-03-24T08:01:18.182Z,13.82
2023-03-24T08:02:18.196Z,13.79
2023-03-24T08:03:18.748Z,13.73
2023-03-24T08:04:18.215Z,13.73
2023-03-24T08:05:18.163Z,13.73
2023-03-24T08:06:18.113Z,13.72
2023-03-24T08:07:18.165Z,13.72
2023-03-24T08:08:18.203Z,13.71
2023-03-24T08:09:18.097Z,13.67
2023-03-24T08:10:18.103Z,13.64
2023-03-24T08:11:18.086Z,13.61
2023-03-24T08:12:20.646Z,13.61
2023-03-24T08:13:18.201Z,13.64
2023-03-24T08:14:18.061Z,13.63
2023-03-24T08:15:18.090Z,13.67
2023-03-24T08:16:18.057Z,13.68
2023-03-24T08:17:18.155Z,13.72
2023-03-24T08:18:18.036Z,13.76
2023-03-24T08:19:18.085Z,13.76
2023-03-24T08:20:17.994Z,13.78
2023-03-24T08:21:17.955Z,13.73
2023-03-24T08:22:17.985Z,13.72
2023-03-24T08:23:18.053Z,13.64
2023-03-24T08:24:17.946Z,13.61
2023-03-24T08:25:17.915Z,13.54
2023-03-24T08:26:17.932Z,13.55
2023-03-24T08:27:17.936Z,13.55
2023-03-24T08:28:17.880Z,13.53
2023-03-24T08:29:17.932Z,13.51
2023-03-24T08:30:17.936Z,13.54
2023-03-24T08:31:17.938Z,13.54
2023-03-24T08:32:18.007Z,13.47
2023-03-24T08:33:17.849Z,13.46
2023-03-24T08:34:17.831Z,13.42
2023-03-24T08:35:17.819Z,13.42
2023-03-24T08:36:17.891Z,13.38
2023-03-24T08:37:17.831Z,13.39
2023-03-24T08:38:18.998Z,13.40
2023-03-24T08:39:17.793Z,13.42
2023-03-24T08:40:18.005Z,13.38
2023-03-24T08:41:17.749Z,13.36
2023-03-24T08:42:17.768Z,13.29
2023-03-24T08:43:17.747Z,13.30
2023-03-24T08:44:17.802Z,13.32
2023-03-24T08:45:17.765Z,13.32
2023-03-24T08:46:17.760Z,13.30
2023-03-24T08:47:17.699Z,13.27
2023-03-24T08:48:17.681Z,13.17
2023-03-24T08:49:17.705Z,13.14
2023-03-24T08:50:17.667Z,13.13
2023-03-24T08:51:17.834Z,13.06
2023-03-24T08:52:17.672Z,12.98
2023-03-24T08:53:17.661Z,12.86
2023-03-24T08:54:17.724Z,12.80
2023-03-24T08:55:17.740Z,12.68
2023-03-24T08:56:17.614Z,12.59
2023-03-24T08:57:17.615Z,12.55
2023-03-24T08:58:17.890Z,12.50
2023-03-24T08:59:17.624Z,12.46
2023-03-24T09:00:17.583Z,12.46
2023-03-24T09:01:17.601Z,12.46
2023-03-24T09:02:17.551Z,12.47
2023-03-24T09:03:17.669Z,12.48
2023-03-24T09:04:17.624Z,12.50
2023-03-24T09:05:17.644Z,12.53
2023-03-24T09:06:17.546Z,12.55
2023-03-24T09:07:17.466Z,12.61
2023-03-24T09:08:17.802Z,12.66
2023-03-24T09:09:17.515Z,12.69
2023-03-24T09:10:17.547Z,12.76
2023-03-24T09:11:17.440Z,12.76
2023-03-24T09:12:17.415Z,12.79
2023-03-24T09:13:17.434Z,12.76
2023-03-24T09:14:17.405Z,12.76
2023-03-24T09:15:17.453Z,12.76
2023-03-24T09:16:17.439Z,12.73
2023-03-24T09:17:17.467Z,12.73
2023-03-24T09:18:17.488Z,12.77
2023-03-24T09:19:17.350Z,12.80
2023-03-24T09:20:17.367Z,12.80
2023-03-24T09:21:17.339Z,12.76
2023-03-24T09:22:17.324Z,12.72
2023-03-24T09:23:17.297Z,12.69
2023-03-24T09:24:17.419Z,12.72
2023-03-24T09:25:17.621Z,12.72
2023-03-24T09:26:17.471Z,12.71
2023-03-24T09:27:17.356Z,12.72
2023-03-24T09:28:17.399Z,12.68
2023-03-24T09:29:17.303Z,12.65
2023-03-24T09:30:17.326Z,12.65
2023-03-24T09:31:17.295Z,12.65
2023-03-24T09:32:17.247Z,12.65
2023-03-24T09:33:17.220Z,12.63
2023-03-24T09:34:17.238Z,12.59
2023-03-24T09:35:17.276Z,12.58
2023-03-24T09:36:17.745Z,12.55
2023-03-24T09:37:17.185Z,12.53
2023-03-24T09:38:17.193Z,12.53
2023-03-24T09:39:18.413Z,12.44
2023-03-24T09:40:17.225Z,12.40
2023-03-24T09:41:17.204Z,12.32
2023-03-24T09:42:17.127Z,12.26
2023-03-24T09:43:17.119Z,12.26
2023-03-24T09:44:17.139Z,12.22
2023-03-24T09:45:17.184Z,12.18
2023-03-24T09:46:17.144Z,12.15
2023-03-24T09:47:17.069Z,12.14
2023-03-24T09:48:17.662Z,12.14
2023-03-24T09:49:17.121Z,12.18
2023-03-24T09:50:17.106Z,12.17
2023-03-24T09:51:17.101Z,12.13
2023-03-24T09:52:17.015Z,12.05
2023-03-24T09:53:17.022Z,12.05
2023-03-24T09:54:17.075Z,11.99
2023-03-24T09:55:16.981Z,11.99
2023-03-24T09:56:17.091Z,11.97
2023-03-24T09:57:17.020Z,11.96
2023-03-24T09:58:16.957Z,11.96
2023-03-24T09:59:17.002Z,11.97
2023-03-24T10:00:17.100Z,11.99
2023-03-24T10:01:16.996Z,12.00
2023-03-24T10:02:16.928Z,12.04
2023-03-24T10:03:16.982Z,12.04
2023-03-24T10:04:17.205Z,12.04
2023-03-24T10:05:16.941Z,12.03
2023-03-24T10:06:16.893Z,12.04
2023-03-24T10:07:16.862Z,12.03
2023-03-24T10:08:16.871Z,12.03
2023-03-24T10:09:16.944Z,11.97
2023-03-24T10:10:16.870Z,11.95
2023-03-24T10:11:17.703Z,11.96
2023-03-24T10:12:16.939Z,11.96
2023-03-24T10:13:16.819Z,11.99
2023-03-24T10:14:16.805Z,11.97
2023-03-24T10:15:27.180Z,11.99
2023-03-24T10:16:16.890Z,12.00
2023-03-24T10:17:16.794Z,12.03
2023-03-24T10:18:16.761Z,12.07
2023-03-24T10:19:16.801Z,12.10
2023-03-24T10:20:16.766Z,12.15
2023-03-24T10:21:16.799Z,12.22
2023-03-24T10:22:16.772Z,12.26
2023-03-24T10:23:16.718Z,12.35
2023-03-24T10:24:16.729Z,12.40
2023-03-24T10:25:16.724Z,12.46
2023-03-24T10:26:16.681Z,12.51
2023-03-24T10:27:16.678Z,12.58
2023-03-24T10:28:16.740Z,12.66
2023-03-24T10:29:16.731Z,12.77
2023-03-24T10:30:16.653Z,12.79
2023-03-24T10:31:17.004Z,12.84
2023-03-24T10:32:16.676Z,12.91
2023-03-24T10:33:17.636Z,12.98
2023-03-24T10:34:16.642Z,13.01
2023-03-24T10:35:16.671Z,13.06
2023-03-24T10:36:16.738Z,13.16
2023-03-24T10:37:16.662Z,13.21
2023-03-24T10:38:16.906Z,13.36
2023-03-24T10:39:18.977Z,13.32
2023-03-24T10:40:16.701Z,13.36
2023-03-24T10:41:16.617Z,13.36
2023-03-24T10:42:16.559Z,13.32
2023-03-24T10:43:16.524Z,13.30
2023-03-24T10:44:16.613Z,13.40
2023-03-24T10:45:16.521Z,13.45
2023-03-24T10:46:16.524Z,13.53
2023-03-24T10:47:16.552Z,13.55
2023-03-24T10:48:16.664Z,13.58
2023-03-24T10:49:16.441Z,13.55
2023-03-24T10:50:16.482Z,13.55
2023-03-24T10:51:16.445Z,13.49
2023-03-24T10:52:16.427Z,13.47
2023-03-24T10:53:16.436Z,13.49
2023-03-24T10:54:16.405Z,13.53
2023-03-24T10:55:16.458Z,13.46
2023-03-24T10:56:16.390Z,13.45
2023-03-24T10:57:16.428Z,13.43
2023-03-24T10:58:16.393Z,13.43
2023-03-24T10:59:16.370Z,13.40
2023-03-24T11:00:16.384Z,13.47
2023-03-24T11:01:16.424Z,13.46
2023-03-24T11:02:16.417Z,13.53
2023-03-24T11:03:16.414Z,13.61
2023-03-24T11:04:16.367Z,13.67
2023-03-24T11:05:17.372Z,13.71
2023-03-24T11:06:16.358Z,13.79
2023-03-24T11:07:16.258Z,13.83
2023-03-24T11:08:16.272Z,13.86
2023-03-24T11:09:16.274Z,13.88
2023-03-24T11:10:16.238Z,13.90
2023-03-24T11:11:16.317Z,13.93
2023-03-24T11:12:16.253Z,13.94
2023-03-24T11:13:18.738Z,13.93
2023-03-24T11:14:16.261Z,13.93
2023-03-24T11:15:21.222Z,13.90
2023-03-24T11:16:16.344Z,13.94
2023-03-24T11:17:16.207Z,13.94
2023-03-24T11:18:16.239Z,13.94
2023-03-24T11:19:17.754Z,13.96
2023-03-24T11:20:16.138Z,13.90
2023-03-24T11:21:16.154Z,13.91
2023-03-24T11:22:16.170Z,13.96
2023-03-24T11:23:16.220Z,13.97
2023-03-24T11:24:16.153Z,14.05
2023-03-24T11:25:16.073Z,14.04
2023-03-24T11:26:16.093Z,14.09
2023-03-24T11:27:16.089Z,14.09
2023-03-24T11:28:16.116Z,14.13
2023-03-24T11:29:16.074Z,14.16
2023-03-24T11:30:16.061Z,14.22
2023-03-24T11:31:16.151Z,14.26
2023-03-24T11:32:16.114Z,14.37
2023-03-24T11:33:16.023Z,14.49
2023-03-24T11:34:16.212Z,14.53
2023-03-24T11:35:16.022Z,14.52
2023-03-24T11:36:15.990Z,14.51
2023-03-24T11:37:16.005Z,14.46
2023-03-24T11:38:15.966Z,14.45
2023-03-24T11:39:15.942Z,14.46
2023-03-24T11:40:15.962Z,14.44
2023-03-24T11:41:15.943Z,14.36
2023-03-24T11:42:15.985Z,14.30
2023-03-24T11:43:15.913Z,14.44
2023-03-24T11:44:15.921Z,14.51
2023-03-24T11:45:15.898Z,14.61
2023-03-24T11:46:15.937Z,14.69
2023-03-24T11:47:15.919Z,14.69
2023-03-24T11:48:15.854Z,14.73
2023-03-24T11:49:15.900Z,14.86
2023-03-24T11:50:15.857Z,14.90
2023-03-24T11:51:15.838Z,14.96
2023-03-24T11:52:15.829Z,15.07
2023-03-24T11:53:15.847Z,15.14
2023-03-24T11:54:15.788Z,15.23
2023-03-24T11:55:15.896Z,15.32
2023-03-24T11:56:15.874Z,15.32
2023-03-24T11:57:15.796Z,15.29
2023-03-24T11:58:15.883Z,15.23
2023-03-24T11:59:15.790Z,15.15
2023-03-24T12:00:15.887Z,15.14
2023-03-24T12:01:15.731Z,15.15
2023-03-24T12:02:15.787Z,15.20
2023-03-24T12:03:15.812Z,15.22
2023-03-24T12:04:15.750Z,15.30
2023-03-24T12:05:15.706Z,15.32
2023-03-24T12:06:15.738Z,15.36
2023-03-24T12:07:15.701Z,15.27
2023-03-24T12:08:15.712Z,15.23
2023-03-24T12:09:15.829Z,15.19
2023-03-24T12:10:15.706Z,15.23
2023-03-24T12:11:17.998Z,15.27
2023-03-24T12:12:15.916Z,15.27
2023-03-24T12:13:29.603Z,15.38
2023-03-24T12:14:15.604Z,15.44
2023-03-24T12:15:27.313Z,15.43
2023-03-24T12:16:15.618Z,15.36
2023-03-24T12:17:15.609Z,15.35
2023-03-24T12:18:15.742Z,15.47
2023-03-24T12:19:15.666Z,15.45
2023-03-24T12:20:15.727Z,15.52
2023-03-24T12:21:15.644Z,15.48
2023-03-24T12:22:15.578Z,15.47
2023-03-24T12:23:15.575Z,15.45
2023-03-24T12:24:15.559Z,15.40
2023-03-24T12:25:15.526Z,15.36
2023-03-24T12:26:16.102Z,15.35
2023-03-24T12:27:15.473Z,15.27
2023-03-24T12:28:15.478Z,15.22
2023-03-24T12:29:15.496Z,15.23
2023-03-24T12:30:15.535Z,15.23
2023-03-24T12:31:15.487Z,15.27
2023-03-24T12:32:15.420Z,15.20
2023-03-24T12:33:15.449Z,15.22
2023-03-24T12:34:15.422Z,15.23
2023-03-24T12:35:15.427Z,15.30
2023-03-24T12:36:15.466Z,15.32
2023-03-24T12:37:15.450Z,15.44
2023-03-24T12:38:15.496Z,15.43
2023-03-24T12:39:16.387Z,15.45
2023-03-24T12:40:15.413Z,15.52
2023-03-24T12:41:15.420Z,15.58
2023-03-24T12:42:15.477Z,15.66
2023-03-24T12:43:15.580Z,15.65
2023-03-24T12:44:15.362Z,15.65
2023-03-24T12:45:15.389Z,15.70
2023-03-24T12:46:15.367Z,15.65
2023-03-24T12:47:15.381Z,15.70
2023-03-24T12:48:15.418Z,15.77
2023-03-24T12:49:15.252Z,15.95
2023-03-24T12:50:15.337Z,16.10
2023-03-24T12:51:15.296Z,16.18
2023-03-24T12:52:15.348Z,16.21
2023-03-24T12:53:15.308Z,16.22